sensor_id;sensor_type;location;lat;lon;timestamp;temperature;humidity
32470;DHT22;18925;48.356;10.864;2022-07-29T00:00:00;17.90;99.90
32470;DHT22;18925;48.356;10.864;2022-07-29T00:00:31;17.90;99.90
32470;DHT22;18925;48.356;10.864;2022-07-29T00:01:02;17.90;99.90
32470;DHT22;18925;48.356;10.864;2022-07-29T00:01:32;17.90;99.90
32470;DHT22;18925;48.356;10.864;2022-07-29T00:02:03;17.80;99.90
32470;DHT22;18925;48.356;10.864;2022-07-29T00:02:34;17.80;99.90
32470;DHT22;18925;48.356;10.864;2022-07-29T00:03:04;17.90;99.90
32470;DHT22;18925;48.356;10.864;2022-07-29T00:03:35;17.80;99.90
32470;DHT22;18925;48.356;10.864;2022-07-29T00:04:06;17.80;99.90
32470;DHT22;18925;48.356;10.864;2022-07-29T00:04:36;17.90;99.90
32470;DHT22;18925;48.356;10.864;2022-07-29T00:05:08;17.90;99.90
32470;DHT22;18925;48.356;10.864;2022-07-29T00:05:40;17.90;99.90
32470;DHT22;18925;48.356;10.864;2022-07-29T00:06:10;17.90;99.90
32470;DHT22;18925;48.356;10.864;2022-07-29T00:06:41;17.90;99.90
32470;DHT22;18925;48.356;10.864;2022-07-29T00:07:12;17.90;99.90
32470;DHT22;18925;48.356;10.864;2022-07-29T00:07:42;17.90;99.90
32470;DHT22;18925;48.356;10.864;2022-07-29T00:08:13;17.90;99.90
32470;DHT22;18925;48.356;10.864;2022-07-29T00:08:45;17.90;99.90
32470;DHT22;18925;48.356;10.864;2022-07-29T00:09:16;17.90;99.90
32470;DHT22;18925;48.356;10.864;2022-07-29T00:09:47;17.90;99.90
32470;DHT22;18925;48.356;10.864;2022-07-29T00:10:17;17.90;99.90
32470;DHT22;18925;48.356;10.864;2022-07-29T00:10:48;17.90;99.90
32470;DHT22;18925;48.356;10.864;2022-07-29T00:11:18;17.90;99.90
32470;DHT22;18925;48.356;10.864;2022-07-29T00:11:49;17.90;99.90
32470;DHT22;18925;48.356;10.864;2022-07-29T00:12:22;18.00;99.90
32470;DHT22;18925;48.356;10.864;2022-07-29T00:12:53;17.90;99.90
32470;DHT22;18925;48.356;10.864;2022-07-29T00:13:24;17.90;99.90
32470;DHT22;18925;48.356;10.864;2022-07-29T00:13:54;17.90;99.90
32470;DHT22;18925;48.356;10.864;2022-07-29T00:14:26;17.80;99.90
32470;DHT22;18925;48.356;10.864;2022-07-29T00:14:57;17.80;99.90
32470;DHT22;18925;48.356;10.864;2022-07-29T00:15:27;17.90;99.90
32470;DHT22;18925;48.356;10.864;2022-07-29T00:15:59;17.90;99.90
32470;DHT22;18925;48.356;10.864;2022-07-29T00:16:30;18.00;99.90
32470;DHT22;18925;48.356;10.864;2022-07-29T00:17:00;17.90;99.90
32470;DHT22;18925;48.356;10.864;2022-07-29T00:17:31;18.00;99.90
32470;DHT22;18925;48.356;10.864;2022-07-29T00:18:02;18.00;99.90
32470;DHT22;18925;48.356;10.864;2022-07-29T00:18:32;18.00;99.90
32470;DHT22;18925;48.356;10.864;2022-07-29T00:19:04;18.00;99.90
32470;DHT22;18925;48.356;10.864;2022-07-29T00:19:34;18.00;99.90
32470;DHT22;18925;48.356;10.864;2022-07-29T00:20:06;17.90;99.90
32470;DHT22;18925;48.356;10.864;2022-07-29T00:20:36;17.90;99.90
32470;DHT22;18925;48.356;10.864;2022-07-29T00:21:07;17.90;99.90
32470;DHT22;18925;48.356;10.864;2022-07-29T00:21:38;17.90;99.90
32470;DHT22;18925;48.356;10.864;2022-07-29T00:22:08;17.90;99.90
32470;DHT22;18925;48.356;10.864;2022-07-29T00:22:39;17.90;99.90
32470;DHT22;18925;48.356;10.864;2022-07-29T00:23:10;17.80;99.90
32470;DHT22;18925;48.356;10.864;2022-07-29T00:23:40;17.80;99.90
32470;DHT22;18925;48.356;10.864;2022-07-29T00:24:11;17.80;99.90
32470;DHT22;18925;48.356;10.864;2022-07-29T00:24:42;17.80;99.90
32470;DHT22;18925;48.356;10.864;2022-07-29T00:25:13;17.80;99.90
32470;DHT22;18925;48.356;10.864;2022-07-29T00:25:43;17.80;99.90
32470;DHT22;18925;48.356;10.864;2022-07-29T00:26:14;17.80;99.90
32470;DHT22;18925;48.356;10.864;2022-07-29T00:26:45;17.80;99.90
32470;DHT22;18925;48.356;10.864;2022-07-29T00:27:16;17.80;99.90
32470;DHT22;18925;48.356;10.864;2022-07-29T00:27:47;17.70;99.90
32470;DHT22;18925;48.356;10.864;2022-07-29T00:28:17;17.70;99.90
32470;DHT22;18925;48.356;10.864;2022-07-29T00:28:48;17.80;99.90
32470;DHT22;18925;48.356;10.864;2022-07-29T00:29:19;17.70;99.90
32470;DHT22;18925;48.356;10.864;2022-07-29T00:29:49;17.70;99.90
32470;DHT22;18925;48.356;10.864;2022-07-29T00:30:20;17.80;99.90
32470;DHT22;18925;48.356;10.864;2022-07-29T00:30:51;17.80;99.90
32470;DHT22;18925;48.356;10.864;2022-07-29T00:31:21;17.80;99.90
32470;DHT22;18925;48.356;10.864;2022-07-29T00:31:52;17.80;99.90
32470;DHT22;18925;48.356;10.864;2022-07-29T00:32:22;17.80;99.90
32470;DHT22;18925;48.356;10.864;2022-07-29T00:32:53;17.80;99.90
32470;DHT22;18925;48.356;10.864;2022-07-29T00:33:24;17.80;99.90
32470;DHT22;18925;48.356;10.864;2022-07-29T00:33:54;17.80;99.90
32470;DHT22;18925;48.356;10.864;2022-07-29T00:34:25;17.80;99.90
32470;DHT22;18925;48.356;10.864;2022-07-29T00:35:14;17.80;99.90
32470;DHT22;18925;48.356;10.864;2022-07-29T00:36:04;17.80;99.90
32470;DHT22;18925;48.356;10.864;2022-07-29T00:36:34;17.80;99.90
32470;DHT22;18925;48.356;10.864;2022-07-29T00:37:05;17.80;99.90
32470;DHT22;18925;48.356;10.864;2022-07-29T00:37:36;17.80;99.90
32470;DHT22;18925;48.356;10.864;2022-07-29T00:38:06;17.80;99.90
32470;DHT22;18925;48.356;10.864;2022-07-29T00:38:37;17.80;99.90
32470;DHT22;18925;48.356;10.864;2022-07-29T00:39:07;17.80;99.90
32470;DHT22;18925;48.356;10.864;2022-07-29T00:39:38;17.80;99.90
32470;DHT22;18925;48.356;10.864;2022-07-29T00:40:09;17.80;99.90
32470;DHT22;18925;48.356;10.864;2022-07-29T00:40:40;17.80;99.90
32470;DHT22;18925;48.356;10.864;2022-07-29T00:41:11;17.70;99.90
32470;DHT22;18925;48.356;10.864;2022-07-29T00:41:42;17.70;99.90
32470;DHT22;18925;48.356;10.864;2022-07-29T00:42:13;17.70;99.90
32470;DHT22;18925;48.356;10.864;2022-07-29T00:42:45;17.70;99.90
32470;DHT22;18925;48.356;10.864;2022-07-29T00:43:17;17.60;99.90
32470;DHT22;18925;48.356;10.864;2022-07-29T00:43:48;17.70;99.90
32470;DHT22;18925;48.356;10.864;2022-07-29T00:44:19;17.60;99.90
32470;DHT22;18925;48.356;10.864;2022-07-29T00:44:49;17.50;99.90
32470;DHT22;18925;48.356;10.864;2022-07-29T00:45:20;17.50;99.90
32470;DHT22;18925;48.356;10.864;2022-07-29T00:45:52;17.50;99.90
32470;DHT22;18925;48.356;10.864;2022-07-29T00:46:22;17.50;99.90
32470;DHT22;18925;48.356;10.864;2022-07-29T00:46:53;17.40;99.90
32470;DHT22;18925;48.356;10.864;2022-07-29T00:47:24;17.50;99.90
32470;DHT22;18925;48.356;10.864;2022-07-29T00:47:54;17.50;99.90
32470;DHT22;18925;48.356;10.864;2022-07-29T00:48:25;17.50;99.90
32470;DHT22;18925;48.356;10.864;2022-07-29T00:48:55;17.50;99.90
32470;DHT22;18925;48.356;10.864;2022-07-29T00:49:26;17.50;99.90
32470;DHT22;18925;48.356;10.864;2022-07-29T00:49:57;17.50;99.90
32470;DHT22;18925;48.356;10.864;2022-07-29T00:50:28;17.50;99.90
32470;DHT22;18925;48.356;10.864;2022-07-29T00:51:00;17.50;99.90
32470;DHT22;18925;48.356;10.864;2022-07-29T00:51:31;17.40;99.90
32470;DHT22;18925;48.356;10.864;2022-07-29T00:52:03;17.40;99.90
32470;DHT22;18925;48.356;10.864;2022-07-29T00:52:37;17.40;99.90
32470;DHT22;18925;48.356;10.864;2022-07-29T00:53:08;17.30;99.90
32470;DHT22;18925;48.356;10.864;2022-07-29T00:53:39;17.30;99.90
32470;DHT22;18925;48.356;10.864;2022-07-29T00:54:09;17.40;99.90
32470;DHT22;18925;48.356;10.864;2022-07-29T00:54:40;17.40;99.90
32470;DHT22;18925;48.356;10.864;2022-07-29T00:55:13;17.40;99.90
32470;DHT22;18925;48.356;10.864;2022-07-29T00:55:44;17.30;99.90
32470;DHT22;18925;48.356;10.864;2022-07-29T00:56:14;17.30;99.90
32470;DHT22;18925;48.356;10.864;2022-07-29T00:56:45;17.30;99.90
32470;DHT22;18925;48.356;10.864;2022-07-29T00:57:15;17.30;99.90
32470;DHT22;18925;48.356;10.864;2022-07-29T00:57:46;17.30;99.90
32470;DHT22;18925;48.356;10.864;2022-07-29T00:58:17;17.30;99.90
32470;DHT22;18925;48.356;10.864;2022-07-29T00:58:48;17.30;99.90
32470;DHT22;18925;48.356;10.864;2022-07-29T00:59:20;17.20;99.90
32470;DHT22;18925;48.356;10.864;2022-07-29T00:59:51;17.20;99.90
32470;DHT22;18925;48.356;10.864;2022-07-29T01:00:24;17.20;99.90
32470;DHT22;18925;48.356;10.864;2022-07-29T01:00:54;17.20;99.90
32470;DHT22;18925;48.356;10.864;2022-07-29T01:01:26;17.20;99.90
32470;DHT22;18925;48.356;10.864;2022-07-29T01:01:56;17.20;99.90
32470;DHT22;18925;48.356;10.864;2022-07-29T01:02:27;17.20;99.90
32470;DHT22;18925;48.356;10.864;2022-07-29T01:02:58;17.30;99.90
32470;DHT22;18925;48.356;10.864;2022-07-29T01:03:28;17.20;99.90
32470;DHT22;18925;48.356;10.864;2022-07-29T01:03:59;17.20;99.90
32470;DHT22;18925;48.356;10.864;2022-07-29T01:04:31;17.20;99.90
32470;DHT22;18925;48.356;10.864;2022-07-29T01:05:04;17.20;99.90
32470;DHT22;18925;48.356;10.864;2022-07-29T01:05:35;17.20;99.90
32470;DHT22;18925;48.356;10.864;2022-07-29T01:06:05;17.20;99.90
32470;DHT22;18925;48.356;10.864;2022-07-29T01:06:36;17.10;99.90
32470;DHT22;18925;48.356;10.864;2022-07-29T01:07:07;17.20;99.90
32470;DHT22;18925;48.356;10.864;2022-07-29T01:07:39;17.20;99.90
32470;DHT22;18925;48.356;10.864;2022-07-29T01:08:12;17.20;99.90
32470;DHT22;18925;48.356;10.864;2022-07-29T01:08:43;17.20;99.90
32470;DHT22;18925;48.356;10.864;2022-07-29T01:09:15;17.20;99.90
32470;DHT22;18925;48.356;10.864;2022-07-29T01:09:46;17.20;99.90
32470;DHT22;18925;48.356;10.864;2022-07-29T01:10:18;17.30;99.90
32470;DHT22;18925;48.356;10.864;2022-07-29T01:10:50;17.20;99.90
32470;DHT22;18925;48.356;10.864;2022-07-29T01:11:22;17.20;99.90
32470;DHT22;18925;48.356;10.864;2022-07-29T01:11:53;17.20;99.90
32470;DHT22;18925;48.356;10.864;2022-07-29T01:12:25;17.30;99.90
32470;DHT22;18925;48.356;10.864;2022-07-29T01:12:58;17.30;99.90
32470;DHT22;18925;48.356;10.864;2022-07-29T01:13:30;17.30;99.90
32470;DHT22;18925;48.356;10.864;2022-07-29T01:14:01;17.30;99.90
32470;DHT22;18925;48.356;10.864;2022-07-29T01:14:33;17.30;99.90
32470;DHT22;18925;48.356;10.864;2022-07-29T01:15:06;17.30;99.90
32470;DHT22;18925;48.356;10.864;2022-07-29T01:15:54;17.30;99.90
32470;DHT22;18925;48.356;10.864;2022-07-29T01:16:31;17.30;99.90
32470;DHT22;18925;48.356;10.864;2022-07-29T01:18:34;17.30;99.90
32470;DHT22;18925;48.356;10.864;2022-07-29T01:19:16;17.30;99.90
32470;DHT22;18925;48.356;10.864;2022-07-29T01:21:35;17.30;99.90
32470;DHT22;18925;48.356;10.864;2022-07-29T01:22:35;17.40;99.90
32470;DHT22;18925;48.356;10.864;2022-07-29T01:24:34;17.30;99.90
32470;DHT22;18925;48.356;10.864;2022-07-29T01:29:57;17.30;99.90
32470;DHT22;18925;48.356;10.864;2022-07-29T01:30:30;17.30;99.90
32470;DHT22;18925;48.356;10.864;2022-07-29T01:31:03;17.20;99.90
32470;DHT22;18925;48.356;10.864;2022-07-29T01:32:12;17.20;99.90
32470;DHT22;18925;48.356;10.864;2022-07-29T01:32:47;17.20;99.90
32470;DHT22;18925;48.356;10.864;2022-07-29T01:33:22;17.20;99.90
32470;DHT22;18925;48.356;10.864;2022-07-29T01:35:03;17.20;99.90
32470;DHT22;18925;48.356;10.864;2022-07-29T01:35:46;17.30;99.90
32470;DHT22;18925;48.356;10.864;2022-07-29T01:36:23;17.30;99.90
32470;DHT22;18925;48.356;10.864;2022-07-29T01:37:43;17.20;99.90
32470;DHT22;18925;48.356;10.864;2022-07-29T01:38:20;17.20;99.90
32470;DHT22;18925;48.356;10.864;2022-07-29T01:39:06;17.20;99.90
32470;DHT22;18925;48.356;10.864;2022-07-29T01:39:38;17.30;99.90
32470;DHT22;18925;48.356;10.864;2022-07-29T01:40:18;17.20;99.90
32470;DHT22;18925;48.356;10.864;2022-07-29T01:40:53;17.20;99.90
32470;DHT22;18925;48.356;10.864;2022-07-29T01:41:31;17.30;99.90
32470;DHT22;18925;48.356;10.864;2022-07-29T01:42:10;17.30;99.90
32470;DHT22;18925;48.356;10.864;2022-07-29T01:42:44;17.30;99.90
32470;DHT22;18925;48.356;10.864;2022-07-29T01:43:20;17.30;99.90
32470;DHT22;18925;48.356;10.864;2022-07-29T01:43:57;17.30;99.90
32470;DHT22;18925;48.356;10.864;2022-07-29T01:45:02;17.30;99.90
32470;DHT22;18925;48.356;10.864;2022-07-29T01:45:40;17.20;99.90
32470;DHT22;18925;48.356;10.864;2022-07-29T01:46:15;17.20;99.90
32470;DHT22;18925;48.356;10.864;2022-07-29T01:46:52;17.20;99.90
32470;DHT22;18925;48.356;10.864;2022-07-29T01:47:28;17.20;99.90
32470;DHT22;18925;48.356;10.864;2022-07-29T01:48:20;17.20;99.90
32470;DHT22;18925;48.356;10.864;2022-07-29T01:48:57;17.20;99.90
32470;DHT22;18925;48.356;10.864;2022-07-29T01:49:36;17.10;99.90
32470;DHT22;18925;48.356;10.864;2022-07-29T01:50:10;17.10;99.90
32470;DHT22;18925;48.356;10.864;2022-07-29T01:50:48;17.10;99.90
32470;DHT22;18925;48.356;10.864;2022-07-29T01:52:20;17.10;99.90
32470;DHT22;18925;48.356;10.864;2022-07-29T01:53:01;17.10;99.90
32470;DHT22;18925;48.356;10.864;2022-07-29T01:53:42;17.10;99.90
32470;DHT22;18925;48.356;10.864;2022-07-29T01:54:26;17.10;99.90
32470;DHT22;18925;48.356;10.864;2022-07-29T01:55:04;17.10;99.90
32470;DHT22;18925;48.356;10.864;2022-07-29T01:55:40;17.10;99.90
32470;DHT22;18925;48.356;10.864;2022-07-29T01:56:13;17.10;99.90
32470;DHT22;18925;48.356;10.864;2022-07-29T01:56:48;17.10;99.90
32470;DHT22;18925;48.356;10.864;2022-07-29T01:57:23;17.10;99.90
32470;DHT22;18925;48.356;10.864;2022-07-29T01:57:58;17.10;99.90
32470;DHT22;18925;48.356;10.864;2022-07-29T01:58:32;17.00;99.90
32470;DHT22;18925;48.356;10.864;2022-07-29T01:59:07;17.00;99.90
32470;DHT22;18925;48.356;10.864;2022-07-29T01:59:38;17.00;99.90
32470;DHT22;18925;48.356;10.864;2022-07-29T02:00:10;17.10;99.90
32470;DHT22;18925;48.356;10.864;2022-07-29T02:00:44;17.10;99.90
32470;DHT22;18925;48.356;10.864;2022-07-29T02:01:16;17.10;99.90
32470;DHT22;18925;48.356;10.864;2022-07-29T02:01:48;17.00;99.90
32470;DHT22;18925;48.356;10.864;2022-07-29T02:02:21;17.00;99.90
32470;DHT22;18925;48.356;10.864;2022-07-29T02:02:53;17.00;99.90
32470;DHT22;18925;48.356;10.864;2022-07-29T02:03:25;17.10;99.90
32470;DHT22;18925;48.356;10.864;2022-07-29T02:03:58;17.10;99.90
32470;DHT22;18925;48.356;10.864;2022-07-29T02:04:32;17.00;99.90
32470;DHT22;18925;48.356;10.864;2022-07-29T02:05:06;17.00;99.90
32470;DHT22;18925;48.356;10.864;2022-07-29T02:05:39;17.00;99.90
32470;DHT22;18925;48.356;10.864;2022-07-29T02:06:11;17.00;99.90
32470;DHT22;18925;48.356;10.864;2022-07-29T02:06:44;16.90;99.90
32470;DHT22;18925;48.356;10.864;2022-07-29T02:07:19;16.90;99.90
32470;DHT22;18925;48.356;10.864;2022-07-29T02:07:50;16.90;99.90
32470;DHT22;18925;48.356;10.864;2022-07-29T02:08:24;16.90;99.90
32470;DHT22;18925;48.356;10.864;2022-07-29T02:08:56;16.90;99.90
32470;DHT22;18925;48.356;10.864;2022-07-29T02:09:30;16.90;99.90
32470;DHT22;18925;48.356;10.864;2022-07-29T02:10:03;16.90;99.90
32470;DHT22;18925;48.356;10.864;2022-07-29T02:10:35;17.00;99.90
32470;DHT22;18925;48.356;10.864;2022-07-29T02:11:08;16.90;99.90
32470;DHT22;18925;48.356;10.864;2022-07-29T02:11:40;16.90;99.90
32470;DHT22;18925;48.356;10.864;2022-07-29T02:12:16;16.90;99.90
32470;DHT22;18925;48.356;10.864;2022-07-29T02:12:48;16.90;99.90
32470;DHT22;18925;48.356;10.864;2022-07-29T02:13:21;16.90;99.90
32470;DHT22;18925;48.356;10.864;2022-07-29T02:13:56;17.00;99.90
32470;DHT22;18925;48.356;10.864;2022-07-29T02:14:31;17.00;99.90
32470;DHT22;18925;48.356;10.864;2022-07-29T02:15:04;17.00;99.90
32470;DHT22;18925;48.356;10.864;2022-07-29T02:15:36;17.00;99.90
32470;DHT22;18925;48.356;10.864;2022-07-29T02:16:09;17.00;99.90
32470;DHT22;18925;48.356;10.864;2022-07-29T02:16:41;17.00;99.90
32470;DHT22;18925;48.356;10.864;2022-07-29T02:17:13;17.00;99.90
32470;DHT22;18925;48.356;10.864;2022-07-29T02:17:50;17.00;99.90
32470;DHT22;18925;48.356;10.864;2022-07-29T02:18:23;17.00;99.90
32470;DHT22;18925;48.356;10.864;2022-07-29T02:18:56;17.00;99.90
32470;DHT22;18925;48.356;10.864;2022-07-29T02:19:29;17.00;99.90
32470;DHT22;18925;48.356;10.864;2022-07-29T02:20:03;17.00;99.90
32470;DHT22;18925;48.356;10.864;2022-07-29T02:20:36;17.00;99.90
32470;DHT22;18925;48.356;10.864;2022-07-29T02:21:09;17.00;99.90
32470;DHT22;18925;48.356;10.864;2022-07-29T02:21:41;17.00;99.90
32470;DHT22;18925;48.356;10.864;2022-07-29T02:22:13;17.00;99.90
32470;DHT22;18925;48.356;10.864;2022-07-29T02:22:45;17.00;99.90
32470;DHT22;18925;48.356;10.864;2022-07-29T02:23:22;17.00;99.90
32470;DHT22;18925;48.356;10.864;2022-07-29T02:23:54;17.00;99.90
32470;DHT22;18925;48.356;10.864;2022-07-29T02:24:27;16.90;99.90
32470;DHT22;18925;48.356;10.864;2022-07-29T02:24:59;17.00;99.90
32470;DHT22;18925;48.356;10.864;2022-07-29T02:25:30;17.00;99.90
32470;DHT22;18925;48.356;10.864;2022-07-29T02:26:02;16.90;99.90
32470;DHT22;18925;48.356;10.864;2022-07-29T02:26:33;17.00;99.90
32470;DHT22;18925;48.356;10.864;2022-07-29T02:27:04;17.00;99.90
32470;DHT22;18925;48.356;10.864;2022-07-29T02:27:38;16.90;99.90
32470;DHT22;18925;48.356;10.864;2022-07-29T02:28:10;17.00;99.90
32470;DHT22;18925;48.356;10.864;2022-07-29T02:28:41;17.00;99.90
32470;DHT22;18925;48.356;10.864;2022-07-29T02:29:13;16.90;99.90
32470;DHT22;18925;48.356;10.864;2022-07-29T02:29:46;16.90;99.90
32470;DHT22;18925;48.356;10.864;2022-07-29T02:30:19;16.90;99.90
32470;DHT22;18925;48.356;10.864;2022-07-29T02:30:53;16.90;99.90
32470;DHT22;18925;48.356;10.864;2022-07-29T02:31:33;16.90;99.90
32470;DHT22;18925;48.356;10.864;2022-07-29T02:32:05;16.90;99.90
32470;DHT22;18925;48.356;10.864;2022-07-29T02:32:38;16.90;99.90
32470;DHT22;18925;48.356;10.864;2022-07-29T02:33:13;16.90;99.90
32470;DHT22;18925;48.356;10.864;2022-07-29T02:33:45;16.90;99.90
32470;DHT22;18925;48.356;10.864;2022-07-29T02:34:18;16.90;99.90
32470;DHT22;18925;48.356;10.864;2022-07-29T02:34:50;16.80;99.90
32470;DHT22;18925;48.356;10.864;2022-07-29T02:35:24;16.80;99.90
32470;DHT22;18925;48.356;10.864;2022-07-29T02:35:56;16.80;99.90
32470;DHT22;18925;48.356;10.864;2022-07-29T02:36:29;16.80;99.90
32470;DHT22;18925;48.356;10.864;2022-07-29T02:37:02;16.90;99.90
32470;DHT22;18925;48.356;10.864;2022-07-29T02:37:34;16.90;99.90
32470;DHT22;18925;48.356;10.864;2022-07-29T02:38:05;16.90;99.90
32470;DHT22;18925;48.356;10.864;2022-07-29T02:38:55;16.90;99.90
32470;DHT22;18925;48.356;10.864;2022-07-29T02:39:29;16.90;99.90
32470;DHT22;18925;48.356;10.864;2022-07-29T02:40:00;16.90;99.90
32470;DHT22;18925;48.356;10.864;2022-07-29T02:40:34;16.90;99.90
32470;DHT22;18925;48.356;10.864;2022-07-29T02:41:11;16.90;99.90
32470;DHT22;18925;48.356;10.864;2022-07-29T02:41:48;16.90;99.90
32470;DHT22;18925;48.356;10.864;2022-07-29T02:42:22;16.90;99.90
32470;DHT22;18925;48.356;10.864;2022-07-29T02:42:53;16.90;99.90
32470;DHT22;18925;48.356;10.864;2022-07-29T02:43:25;16.90;99.90
32470;DHT22;18925;48.356;10.864;2022-07-29T02:44:02;16.90;99.90
32470;DHT22;18925;48.356;10.864;2022-07-29T02:44:34;16.90;99.90
32470;DHT22;18925;48.356;10.864;2022-07-29T02:45:05;16.90;99.90
32470;DHT22;18925;48.356;10.864;2022-07-29T02:45:36;16.80;99.90
32470;DHT22;18925;48.356;10.864;2022-07-29T02:46:11;16.80;99.90
32470;DHT22;18925;48.356;10.864;2022-07-29T02:46:50;16.80;99.90
32470;DHT22;18925;48.356;10.864;2022-07-29T02:47:55;16.80;99.90
32470;DHT22;18925;48.356;10.864;2022-07-29T02:48:37;16.80;99.90
32470;DHT22;18925;48.356;10.864;2022-07-29T02:50:00;16.80;99.90
32470;DHT22;18925;48.356;10.864;2022-07-29T02:50:36;16.80;99.90
32470;DHT22;18925;48.356;10.864;2022-07-29T02:51:12;16.80;99.90
32470;DHT22;18925;48.356;10.864;2022-07-29T02:51:53;16.80;99.90
32470;DHT22;18925;48.356;10.864;2022-07-29T02:53:01;16.80;99.90
32470;DHT22;18925;48.356;10.864;2022-07-29T02:53:33;16.80;99.90
32470;DHT22;18925;48.356;10.864;2022-07-29T02:54:06;16.80;99.90
32470;DHT22;18925;48.356;10.864;2022-07-29T02:54:42;16.80;99.90
32470;DHT22;18925;48.356;10.864;2022-07-29T02:55:25;16.80;99.90
32470;DHT22;18925;48.356;10.864;2022-07-29T02:56:01;16.80;99.90
32470;DHT22;18925;48.356;10.864;2022-07-29T02:56:34;16.80;99.90
32470;DHT22;18925;48.356;10.864;2022-07-29T02:57:42;16.80;99.90
32470;DHT22;18925;48.356;10.864;2022-07-29T02:58:21;16.80;99.90
32470;DHT22;18925;48.356;10.864;2022-07-29T02:58:58;16.80;99.90
32470;DHT22;18925;48.356;10.864;2022-07-29T02:59:32;16.80;99.90
32470;DHT22;18925;48.356;10.864;2022-07-29T03:00:07;16.80;99.90
32470;DHT22;18925;48.356;10.864;2022-07-29T03:00:40;16.90;99.90
32470;DHT22;18925;48.356;10.864;2022-07-29T03:01:15;16.80;99.90
32470;DHT22;18925;48.356;10.864;2022-07-29T03:01:46;16.80;99.90
32470;DHT22;18925;48.356;10.864;2022-07-29T03:02:18;16.90;99.90
32470;DHT22;18925;48.356;10.864;2022-07-29T03:02:52;16.90;99.90
32470;DHT22;18925;48.356;10.864;2022-07-29T03:03:28;16.90;99.90
32470;DHT22;18925;48.356;10.864;2022-07-29T03:04:03;16.90;99.90
32470;DHT22;18925;48.356;10.864;2022-07-29T03:04:35;16.80;99.90
32470;DHT22;18925;48.356;10.864;2022-07-29T03:05:08;16.80;99.90
32470;DHT22;18925;48.356;10.864;2022-07-29T03:05:40;16.80;99.90
32470;DHT22;18925;48.356;10.864;2022-07-29T03:06:12;16.80;99.90
32470;DHT22;18925;48.356;10.864;2022-07-29T03:06:44;16.70;99.90
32470;DHT22;18925;48.356;10.864;2022-07-29T03:07:18;16.80;99.90
32470;DHT22;18925;48.356;10.864;2022-07-29T03:07:57;16.80;99.90
32470;DHT22;18925;48.356;10.864;2022-07-29T03:08:28;16.80;99.90
32470;DHT22;18925;48.356;10.864;2022-07-29T03:09:00;16.70;99.90
32470;DHT22;18925;48.356;10.864;2022-07-29T03:09:31;16.80;99.90
32470;DHT22;18925;48.356;10.864;2022-07-29T03:10:03;16.80;99.90
32470;DHT22;18925;48.356;10.864;2022-07-29T03:10:34;16.70;99.90
32470;DHT22;18925;48.356;10.864;2022-07-29T03:11:05;16.80;99.90
32470;DHT22;18925;48.356;10.864;2022-07-29T03:11:36;16.80;99.90
32470;DHT22;18925;48.356;10.864;2022-07-29T03:12:08;16.70;99.90
32470;DHT22;18925;48.356;10.864;2022-07-29T03:12:40;16.70;99.90
32470;DHT22;18925;48.356;10.864;2022-07-29T03:13:11;16.70;99.90
32470;DHT22;18925;48.356;10.864;2022-07-29T03:13:44;16.70;99.90
32470;DHT22;18925;48.356;10.864;2022-07-29T03:14:16;16.70;99.90
32470;DHT22;18925;48.356;10.864;2022-07-29T03:14:47;16.70;99.90
32470;DHT22;18925;48.356;10.864;2022-07-29T03:15:19;16.70;99.90
32470;DHT22;18925;48.356;10.864;2022-07-29T03:15:50;16.70;99.90
32470;DHT22;18925;48.356;10.864;2022-07-29T03:16:21;16.70;99.90
32470;DHT22;18925;48.356;10.864;2022-07-29T03:16:54;16.60;99.90
32470;DHT22;18925;48.356;10.864;2022-07-29T03:17:25;16.60;99.90
32470;DHT22;18925;48.356;10.864;2022-07-29T03:17:56;16.60;99.90
32470;DHT22;18925;48.356;10.864;2022-07-29T03:18:28;16.60;99.90
32470;DHT22;18925;48.356;10.864;2022-07-29T03:19:00;16.60;99.90
32470;DHT22;18925;48.356;10.864;2022-07-29T03:19:32;16.60;99.90
32470;DHT22;18925;48.356;10.864;2022-07-29T03:20:02;16.60;99.90
32470;DHT22;18925;48.356;10.864;2022-07-29T03:20:33;16.60;99.90
32470;DHT22;18925;48.356;10.864;2022-07-29T03:21:04;16.60;99.90
32470;DHT22;18925;48.356;10.864;2022-07-29T03:21:35;16.70;99.90
32470;DHT22;18925;48.356;10.864;2022-07-29T03:22:06;16.70;99.90
32470;DHT22;18925;48.356;10.864;2022-07-29T03:22:41;16.60;99.90
32470;DHT22;18925;48.356;10.864;2022-07-29T03:23:19;16.60;99.90
32470;DHT22;18925;48.356;10.864;2022-07-29T03:23:50;16.60;99.90
32470;DHT22;18925;48.356;10.864;2022-07-29T03:24:39;16.60;99.90
32470;DHT22;18925;48.356;10.864;2022-07-29T03:25:14;16.60;99.90
32470;DHT22;18925;48.356;10.864;2022-07-29T03:25:45;16.60;99.90
32470;DHT22;18925;48.356;10.864;2022-07-29T03:26:16;16.60;99.90
32470;DHT22;18925;48.356;10.864;2022-07-29T03:26:47;16.60;99.90
32470;DHT22;18925;48.356;10.864;2022-07-29T03:27:17;16.50;99.90
32470;DHT22;18925;48.356;10.864;2022-07-29T03:27:48;16.60;99.90
32470;DHT22;18925;48.356;10.864;2022-07-29T03:28:19;16.60;99.90
32470;DHT22;18925;48.356;10.864;2022-07-29T03:28:50;16.60;99.90
32470;DHT22;18925;48.356;10.864;2022-07-29T03:29:21;16.50;99.90
32470;DHT22;18925;48.356;10.864;2022-07-29T03:29:51;16.60;99.90
32470;DHT22;18925;48.356;10.864;2022-07-29T03:30:22;16.60;99.90
32470;DHT22;18925;48.356;10.864;2022-07-29T03:30:53;16.60;99.90
32470;DHT22;18925;48.356;10.864;2022-07-29T03:31:24;16.60;99.90
32470;DHT22;18925;48.356;10.864;2022-07-29T03:31:55;16.60;99.90
32470;DHT22;18925;48.356;10.864;2022-07-29T03:32:26;16.60;99.90
32470;DHT22;18925;48.356;10.864;2022-07-29T03:32:56;16.60;99.90
32470;DHT22;18925;48.356;10.864;2022-07-29T03:33:27;16.60;99.90
32470;DHT22;18925;48.356;10.864;2022-07-29T03:33:59;16.60;99.90
32470;DHT22;18925;48.356;10.864;2022-07-29T03:34:30;16.60;99.90
32470;DHT22;18925;48.356;10.864;2022-07-29T03:35:00;16.60;99.90
32470;DHT22;18925;48.356;10.864;2022-07-29T03:35:31;16.60;99.90
32470;DHT22;18925;48.356;10.864;2022-07-29T03:36:02;16.60;99.90
32470;DHT22;18925;48.356;10.864;2022-07-29T03:36:32;16.60;99.90
32470;DHT22;18925;48.356;10.864;2022-07-29T03:37:05;16.60;99.90
32470;DHT22;18925;48.356;10.864;2022-07-29T03:37:36;16.60;99.90
32470;DHT22;18925;48.356;10.864;2022-07-29T03:38:07;16.60;99.90
32470;DHT22;18925;48.356;10.864;2022-07-29T03:38:37;16.50;99.90
32470;DHT22;18925;48.356;10.864;2022-07-29T03:39:11;16.60;99.90
32470;DHT22;18925;48.356;10.864;2022-07-29T03:39:44;16.60;99.90
32470;DHT22;18925;48.356;10.864;2022-07-29T03:40:33;16.60;99.90